Meteo Giornale » Osservazioni meteo Svezia » Stockholm-Arlanda

ore: 22:50 - Osservazioni Meteo Stockholm-Arlanda
Lat. 59° 39' N Lon. 17° 57' E Alt. 38 metri s.l.m.

sereno Europe/Stockholm

21 °C

Sereno

Temp. 24 Ore

15 °C

30 °C

Sud

7.4 Km/h

Dew point 11 °C

Umidità 52 %

Visibilità  10 Km

Il sole sorge alle ore 04:01

Il sole tramonta alle ore 21:48

Data e Ora Cielo e Fenomeni T °C DP °C Um. % Pres. hPa Vis. km Vento km/h
Oggi h: 22:50 sereno Sereno 21 11 52 1012 10 S 7.4
Oggi h: 22:20 sereno Sereno 23 12 49 1012 10 N 5.5
Oggi h: 21:50 sereno Sereno 25 11 41 1012 10 S/SE 11.1
Oggi h: 21:20 sereno Sereno 24 12 47 1012 10 S 9.3
Oggi h: 20:50 sereno Sereno 26 11 39 1012 10 SE 13
Oggi h: 20:20 sereno Sereno 26 11 39 1012 10 S 13
Oggi h: 19:50 sereno Sereno 27 12 39 1012 10 S 16.7
Oggi h: 19:20 sereno Sereno 28 12 37 1012 10 S 11.1
Oggi h: 18:50 sereno Sereno 28 12 37 1011 10 S/SE 13
Oggi h: 18:20 sereno Sereno 28 11 34 1011 10 S 11.1
Oggi h: 17:50 sereno Sereno 27 12 39 1012 10 S/SE 11.1
Oggi h: 17:20 sereno Sereno 28 12 37 1012 10 S 13
Oggi h: 16:50 sereno Sereno 28 12 37 1012 10 S/SE 13
Oggi h: 16:20 sereno Sereno 29 12 35 1012 10 E/SE 13
Oggi h: 15:50 sereno Sereno 28 12 37 1012 10 S/SE 16.7
Oggi h: 15:20 sereno Sereno 28 12 37 1012 10 SE 18.5
Oggi h: 14:50 sereno Sereno 28 13 39 1012 10 SE 11.1
Oggi h: 14:20 sereno Sereno 29 13 37 1012 10 SE 20.3
Oggi h: 13:50 sereno Sereno 28 13 39 1012 10 E/SE 18.5
Oggi h: 13:20 sereno Sereno 30 12 33 1012 10 SE 11.1
Oggi h: 12:50 sereno Sereno 29 13 37 1012 10 SE 16.7
Oggi h: 12:20 sereno Sereno 29 12 35 1012 10 E/SE 14.8
Oggi h: 11:50 sereno Sereno 28 13 39 1013 10 E 11.1
Oggi h: 11:20 sereno Sereno 28 13 39 1013 10 E/NE 9.3
Oggi h: 10:50 sereno Sereno 28 12 37 1013 10 E/NE 13
Oggi h: 10:20 sereno Sereno 28 13 39 1013 10 N 7.4
Oggi h: 09:50 sereno Sereno 27 13 42 1013 10 E/SE 9.3
Oggi h: 09:20 sereno Sereno 27 15 47 1013 10 N 5.5
Oggi h: 08:50 sereno Sereno 26 15 50 1013 10 N 5.5
Oggi h: 08:20 sereno Sereno 25 15 53 1013 10 N 5.5
Oggi h: 07:50 sereno Sereno 24 15 57 1013 10 N 5.5
Oggi h: 07:20 sereno Sereno 22 15 64 1013 10 E 7.4
Oggi h: 06:50 sereno Sereno 20 15 72 1013 10 E/NE 7.4
Oggi h: 06:20 sereno Sereno 20 14 68 1013 10 E 9.3
Oggi h: 05:50 sereno Sereno 19 13 68 1013 10 N 5.5
Oggi h: 05:20 sereno Sereno 16 13 82 1013 10 E 11.1
Oggi h: 04:50 sereno Sereno 16 13 82 1013 10 E 11.1
Oggi h: 04:20 sereno Sereno 16 13 82 1013 10 N 5.5
Oggi h: 03:50 sereno Sereno 16 13 82 1013 10 N 3.7
Oggi h: 03:20 sereno Sereno 15 13 87 1013 10 N 5.5
Oggi h: 02:50 sereno Sereno 16 13 82 1013 10 N 5.5
Oggi h: 02:20 sereno Sereno 17 13 77 1013 10 N 5.5
Oggi h: 01:50 sereno Sereno 16 13 82 1013 10 N 3.7
Oggi h: 01:20 sereno Sereno 16 13 82 1013 10 N 3.7
Oggi h: 00:50 sereno Sereno 17 13 77 1013 10 N 3.7
Oggi h: 00:20 sereno Sereno 17 13 77 1013 10 N 3.7
Ieri h: 23:50 sereno Sereno 18 13 72 1013 10 N 3.7